RYR4913 LICJ-EDDK
Flight info
| Callsign | RYR4913 |
|---|---|
| Flight time | N/A |
| Altitude | 38000 |
| Route | GIANO DCT ABESI DCT LADOL T163 KOVAN T844 ASKIK T840 GULKO |
| Aircraft | B38M/M-SDE1FGHILORVWXY/HB1 |
Departure
| Time | N/A |
|---|---|
| Airport | Falcone–Borsellino Airport (LICJ) |
Arrival
| Time | 2026-02-18 12:00 |
|---|---|
| Airport | Cologne Bonn Airport (EDDK) |
| Time | Latitude | Longitude | Altitude | Speed | Heading |
|---|---|---|---|---|---|
| 2026-02-18 11:12 | 46.87365 | 9.01262 | 37989 ft | 415 kts | 348° |
| 2026-02-18 11:12 | 46.90251 | 9.01134 | 37988 ft | 414 kts | 349° |
| 2026-02-18 11:13 | 46.95996 | 9.00876 | 37920 ft | 412 kts | 349° |
| 2026-02-18 11:13 | 47.04568 | 9.00490 | 38117 ft | 412 kts | 348° |
| 2026-02-18 11:14 | 47.07443 | 9.00360 | 37943 ft | 413 kts | 348° |
| 2026-02-18 11:14 | 47.10310 | 9.00232 | 37989 ft | 412 kts | 349° |
| 2026-02-18 11:14 | 47.16045 | 8.99972 | 37965 ft | 413 kts | 348° |
| 2026-02-18 11:15 | 47.21786 | 8.99712 | 37970 ft | 413 kts | 348° |
| 2026-02-18 11:15 | 47.27495 | 8.99453 | 37976 ft | 414 kts | 348° |
| 2026-02-18 11:16 | 47.33271 | 8.99190 | 37960 ft | 416 kts | 348° |
| 2026-02-18 11:16 | 47.39051 | 8.98927 | 37969 ft | 416 kts | 348° |
| 2026-02-18 11:17 | 47.47734 | 8.98529 | 37981 ft | 416 kts | 348° |
| 2026-02-18 11:18 | 47.53490 | 8.98266 | 37967 ft | 412 kts | 348° |
| 2026-02-18 11:18 | 47.59215 | 8.98003 | 37971 ft | 412 kts | 348° |
| 2026-02-18 11:19 | 47.64944 | 8.97740 | 37974 ft | 412 kts | 348° |
| 2026-02-18 11:19 | 47.70680 | 8.97475 | 37972 ft | 413 kts | 348° |
| 2026-02-18 11:20 | 47.76422 | 8.97209 | 37982 ft | 413 kts | 348° |
| 2026-02-18 11:20 | 47.82164 | 8.96943 | 37968 ft | 413 kts | 348° |
| 2026-02-18 11:21 | 47.87911 | 8.96677 | 38004 ft | 413 kts | 348° |
| 2026-02-18 11:21 | 47.96473 | 8.96278 | 37970 ft | 412 kts | 348° |
| 2026-02-18 11:22 | 48.02211 | 8.96010 | 37966 ft | 412 kts | 348° |
| 2026-02-18 11:22 | 48.07944 | 8.95741 | 37965 ft | 413 kts | 348° |
| 2026-02-18 11:23 | 48.13692 | 8.95472 | 37957 ft | 412 kts | 348° |
| 2026-02-18 11:23 | 48.19470 | 8.95785 | 37976 ft | 421 kts | 355° |
| 2026-02-18 11:24 | 48.25301 | 8.96641 | 37960 ft | 421 kts | 355° |
| 2026-02-18 11:24 | 48.31139 | 8.97524 | 38002 ft | 422 kts | 355° |
| 2026-02-18 11:25 | 48.39888 | 8.98852 | 37972 ft | 421 kts | 355° |
| 2026-02-18 11:26 | 48.45720 | 8.99742 | 37964 ft | 421 kts | 355° |
| 2026-02-18 11:26 | 48.51557 | 9.00633 | 37960 ft | 421 kts | 355° |
| 2026-02-18 11:27 | 48.57386 | 9.01524 | 37967 ft | 421 kts | 355° |
| 2026-02-18 11:27 | 48.63226 | 9.02519 | 37959 ft | 426 kts | 359° |
| 2026-02-18 11:28 | 48.69079 | 9.03933 | 37965 ft | 425 kts | 358° |
| 2026-02-18 11:28 | 48.74931 | 9.05302 | 37997 ft | 426 kts | 359° |
| 2026-02-18 11:29 | 48.80793 | 9.06668 | 37972 ft | 426 kts | 359° |
| 2026-02-18 11:29 | 48.89501 | 9.07380 | 37959 ft | 400 kts | 336° |
| 2026-02-18 11:30 | 48.94856 | 9.04988 | 37952 ft | 400 kts | 335° |
| 2026-02-18 11:30 | 49.00137 | 9.02430 | 37966 ft | 401 kts | 335° |
| 2026-02-18 11:31 | 49.05441 | 8.99776 | 37959 ft | 401 kts | 334° |
| 2026-02-18 11:31 | 49.10744 | 8.97099 | 37960 ft | 401 kts | 334° |
| 2026-02-18 11:32 | 49.16047 | 8.94413 | 37975 ft | 401 kts | 334° |
| 2026-02-18 11:32 | 49.21348 | 8.91723 | 37966 ft | 402 kts | 335° |
| 2026-02-18 11:33 | 49.29324 | 8.87661 | 37970 ft | 402 kts | 334° |
| 2026-02-18 11:34 | 49.34628 | 8.84955 | 37975 ft | 402 kts | 334° |
| 2026-02-18 11:34 | 49.39958 | 8.82312 | 37981 ft | 404 kts | 337° |
| 2026-02-18 11:35 | 49.45380 | 8.79979 | 37973 ft | 405 kts | 337° |
| 2026-02-18 11:35 | 49.50811 | 8.77598 | 37990 ft | 406 kts | 337° |
| 2026-02-18 11:36 | 49.56238 | 8.75209 | 37988 ft | 406 kts | 337° |
| 2026-02-18 11:36 | 49.61677 | 8.72808 | 37979 ft | 406 kts | 337° |
| 2026-02-18 11:37 | 49.67069 | 8.70423 | 37986 ft | 406 kts | 337° |
| 2026-02-18 11:37 | 49.75234 | 8.66800 | 37979 ft | 407 kts | 337° |
| 2026-02-18 11:38 | 49.80678 | 8.64377 | 37984 ft | 408 kts | 337° |
| 2026-02-18 11:38 | 49.86114 | 8.61952 | 37976 ft | 407 kts | 337° |
| 2026-02-18 11:39 | 49.91565 | 8.59515 | 37971 ft | 408 kts | 337° |
| 2026-02-18 11:39 | 49.97031 | 8.57065 | 37994 ft | 409 kts | 337° |
| 2026-02-18 11:40 | 50.02529 | 8.54596 | 37986 ft | 409 kts | 337° |
| 2026-02-18 11:40 | 50.07870 | 8.51887 | 38006 ft | 406 kts | 334° |
| 2026-02-18 11:41 | 50.15908 | 8.47577 | 37996 ft | 407 kts | 334° |
| 2026-02-18 11:42 | 50.21274 | 8.44708 | 37994 ft | 408 kts | 334° |
| 2026-02-18 11:42 | 50.26640 | 8.41833 | 37998 ft | 408 kts | 334° |
| 2026-02-18 11:43 | 50.31594 | 8.37917 | 38004 ft | 398 kts | 323° |
| 2026-02-18 11:43 | 50.36295 | 8.33319 | 38029 ft | 399 kts | 322° |
| 2026-02-18 11:44 | 50.40972 | 8.28664 | 37991 ft | 398 kts | 322° |
| 2026-02-18 11:44 | 50.45651 | 8.23978 | 37984 ft | 399 kts | 322° |
| 2026-02-18 11:45 | 50.50323 | 8.19286 | 37997 ft | 399 kts | 322° |
| 2026-02-18 11:45 | 50.54983 | 8.14596 | 37890 ft | 391 kts | 322° |
| 2026-02-18 11:45 | 50.57263 | 8.12296 | 37214 ft | 389 kts | 322° |
| 2026-02-18 11:46 | 50.59546 | 8.09991 | 36431 ft | 390 kts | 322° |
| 2026-02-18 11:46 | 50.61833 | 8.07679 | 35726 ft | 391 kts | 322° |
| 2026-02-18 11:46 | 50.64121 | 8.05363 | 34921 ft | 391 kts | 321° |
| 2026-02-18 11:46 | 50.66409 | 8.03045 | 34199 ft | 391 kts | 321° |
| 2026-02-18 11:47 | 50.68697 | 8.00725 | 33396 ft | 391 kts | 321° |
| 2026-02-18 11:47 | 50.70983 | 7.98405 | 32511 ft | 391 kts | 321° |
| 2026-02-18 11:47 | 50.73248 | 7.96100 | 31589 ft | 393 kts | 321° |
| 2026-02-18 11:47 | 50.75320 | 7.93277 | 30586 ft | 388 kts | 305° |
| 2026-02-18 11:48 | 50.76815 | 7.89736 | 29490 ft | 390 kts | 300° |
| 2026-02-18 11:48 | 50.78245 | 7.86107 | 28240 ft | 396 kts | 299° |
| 2026-02-18 11:48 | 50.79684 | 7.82355 | 27004 ft | 402 kts | 299° |
| 2026-02-18 11:48 | 50.81127 | 7.78531 | 25785 ft | 408 kts | 299° |
| 2026-02-18 11:49 | 50.82581 | 7.74636 | 24563 ft | 413 kts | 299° |
| 2026-02-18 11:49 | 50.85506 | 7.66761 | 22508 ft | 414 kts | 299° |
| 2026-02-18 11:49 | 50.86943 | 7.62868 | 21628 ft | 407 kts | 299° |
| 2026-02-18 11:50 | 50.88360 | 7.59023 | 20837 ft | 402 kts | 299° |
| 2026-02-18 11:50 | 50.89760 | 7.55214 | 20096 ft | 397 kts | 299° |
| 2026-02-18 11:50 | 50.91138 | 7.51460 | 19298 ft | 394 kts | 299° |
| 2026-02-18 11:50 | 50.92515 | 7.47703 | 18506 ft | 393 kts | 299° |
| 2026-02-18 11:51 | 50.93884 | 7.43977 | 17724 ft | 390 kts | 300° |
| 2026-02-18 11:51 | 50.95312 | 7.40344 | 16827 ft | 385 kts | 301° |
| 2026-02-18 11:51 | 50.96727 | 7.36749 | 15501 ft | 385 kts | 301° |
| 2026-02-18 11:51 | 50.98141 | 7.33137 | 14282 ft | 384 kts | 302° |
| 2026-02-18 11:52 | 50.99552 | 7.29523 | 12832 ft | 385 kts | 302° |
| 2026-02-18 11:52 | 51.00955 | 7.25921 | 11574 ft | 383 kts | 302° |
| 2026-02-18 11:52 | 51.02348 | 7.22340 | 10398 ft | 378 kts | 303° |
| 2026-02-18 11:52 | 51.03720 | 7.18812 | 9339 ft | 372 kts | 303° |
| 2026-02-18 11:53 | 51.05066 | 7.15343 | 8456 ft | 362 kts | 303° |
| 2026-02-18 11:53 | 51.07441 | 7.09104 | 8484 ft | 301 kts | 301° |
| 2026-02-18 11:53 | 51.08431 | 7.06368 | 8418 ft | 279 kts | 301° |
| 2026-02-18 11:54 | 51.09380 | 7.03742 | 8060 ft | 270 kts | 301° |
| 2026-02-18 11:54 | 51.10044 | 7.00977 | 7498 ft | 270 kts | 274° |
| 2026-02-18 11:54 | 51.09634 | 6.98146 | 7027 ft | 265 kts | 237° |
| 2026-02-18 11:54 | 51.08285 | 6.96227 | 6500 ft | 261 kts | 209° |
| 2026-02-18 11:55 | 51.06763 | 6.94646 | 5886 ft | 263 kts | 216° |
| 2026-02-18 11:55 | 51.05285 | 6.93017 | 5518 ft | 253 kts | 203° |
| 2026-02-18 11:55 | 51.03643 | 6.92450 | 5271 ft | 236 kts | 175° |
| 2026-02-18 11:55 | 51.02096 | 6.93046 | 4944 ft | 227 kts | 155° |
| 2026-02-18 11:56 | 51.00773 | 6.94365 | 4488 ft | 221 kts | 141° |
| 2026-02-18 11:56 | 50.99637 | 6.96000 | 3861 ft | 220 kts | 136° |
| 2026-02-18 11:56 | 50.98537 | 6.97646 | 3346 ft | 215 kts | 137° |
| 2026-02-18 11:56 | 50.97454 | 6.99230 | 2997 ft | 211 kts | 137° |
| 2026-02-18 11:57 | 50.96370 | 7.00829 | 2708 ft | 215 kts | 136° |
| 2026-02-18 11:57 | 50.94267 | 7.04028 | 1806 ft | 198 kts | 135° |
| 2026-02-18 11:57 | 50.93434 | 7.05303 | 1531 ft | 176 kts | 135° |
| 2026-02-18 11:58 | 50.92951 | 7.06025 | 1380 ft | 165 kts | 136° |
| 2026-02-18 11:58 | 50.92128 | 7.07192 | 1243 ft | 148 kts | 138° |
| 2026-02-18 11:58 | 50.91376 | 7.08206 | 1017 ft | 143 kts | 140° |
| 2026-02-18 11:58 | 50.90613 | 7.09230 | 851 ft | 141 kts | 139° |
| 2026-02-18 11:59 | 50.89910 | 7.10228 | 723 ft | 135 kts | 138° |
| 2026-02-18 11:59 | 50.89218 | 7.11250 | 553 ft | 132 kts | 138° |
| 2026-02-18 11:59 | 50.88537 | 7.12238 | 395 ft | 132 kts | 140° |
| 2026-02-18 11:59 | 50.88077 | 7.12877 | 286 ft | 127 kts | 140° |
| 2026-02-18 12:00 | 50.87330 | 7.13944 | 244 ft | 74 kts | 137° |
| 2026-02-18 12:00 | 50.87135 | 7.14228 | 252 ft | 52 kts | 138° |
| 2026-02-18 12:00 | 50.86866 | 7.14621 | 265 ft | 52 kts | 138° |
| 2026-02-18 12:00 | 50.86746 | 7.14761 | 270 ft | 5 kts | 184° |
| 2026-02-18 12:01 | 50.86733 | 7.14745 | 270 ft | 3 kts | 232° |
| 2026-02-18 12:01 | 50.86686 | 7.14605 | 268 ft | 13 kts | 244° |
| 2026-02-18 12:01 | 50.86662 | 7.14461 | 266 ft | 10 kts | 294° |
| 2026-02-18 12:02 | 50.86713 | 7.14382 | 265 ft | 12 kts | 317° |
| 2026-02-18 12:02 | 50.86794 | 7.14264 | 259 ft | 19 kts | 317° |
| 2026-02-18 12:02 | 50.86891 | 7.14122 | 257 ft | 19 kts | 317° |
| 2026-02-18 12:02 | 50.87001 | 7.13964 | 250 ft | 25 kts | 317° |
| 2026-02-18 12:03 | 50.87146 | 7.13754 | 242 ft | 31 kts | 318° |
| 2026-02-18 12:03 | 50.87315 | 7.13510 | 238 ft | 35 kts | 317° |
| 2026-02-18 12:03 | 50.87502 | 7.13239 | 235 ft | 37 kts | 317° |
| 2026-02-18 12:03 | 50.87699 | 7.12955 | 235 ft | 38 kts | 319° |
| 2026-02-18 12:04 | 50.87788 | 7.12756 | 235 ft | 15 kts | 261° |
| 2026-02-18 12:04 | 50.87778 | 7.12618 | 236 ft | 10 kts | 301° |
| 2026-02-18 12:04 | 50.87813 | 7.12548 | 235 ft | 7 kts | 306° |
| 2026-02-18 12:04 | 50.87827 | 7.12486 | 235 ft | 5 kts | 287° |
| 2026-02-18 12:05 | 50.87833 | 7.12459 | 239 ft | 0 kts | 287° |